x

Destruction Island, Wa (desw1) Weather Station

7:00 - Wed 18th Jan 2017 All times are PST. -8 hours from GMT.

  • Wind
    44mph, 49mph gusts
  • Aire Temp 48°f
  • Sea Pressure 987.9mb
  • Destruction Island, Wa
  • Destruction Island, Wa

More Historic Weather Station data

Upgrade to MSW Pro to gain access to the past 30 days of data for over 8000 Wavebouys and Weather Stations around the globe.

Join Pro

Comparision Forecast

View Surf forecast
   
mié 01/18 7:00 44 49 mph 987.9mb 48f
6:00 43 47 mph 988.6mb 48f
5:00 38 41 mph 990.5mb 48f
4:00 34 38 mph 991.5mb 48f
3:00 33 37 mph 992.8mb 48f
2:00 38 40 mph 993.8mb 48f
1:00 38 41 mph 994mb 48f
12:00 38 41 mph 994.9mb 48f
mar 01/17 11:00 38 41 mph 994.7mb 48f
10:00 36 40 mph 995.3mb 48f
9:00 40 44 mph 994.5mb 48f
8:00 45 49 mph 993.8mb 47f
7:00 51 56 mph 994mb 47f
6:00 49 56 mph 994.1mb 48f
5:00 53 60 mph 994.7mb 48f
4:00 55 61 mph 995.5mb 48f
3:00 43 53 mph 996.2mb 47f
2:00 37 41 mph 997.8mb 47f
1:00 34 38 mph 1000.3mb 46f
12:00 33 40 mph 1002.3mb 46f
11:00 37 43 mph 1003.3mb 46f
10:00 39 44 mph 1003.7mb 45f
9:00 38 41 mph 1003.3mb 45f
8:00 36 40 mph 1003.3mb 45f
7:00 38 41 mph 1003.7mb 45f
6:00 37 41 mph 1004.4mb 46f
5:00 37 43 mph 1005.7mb 45f
4:00 34 40 mph 1006.8mb 46f
3:00 36 39 mph 1007.9mb 48f
2:00 40 45 mph 1009.6mb 50f
1:00 36 41 mph 1009.9mb 51f
12:00 33 36 mph 1010.3mb 52f
lun 01/16 11:00 31 37 mph 1010.1mb 51f
10:00 37 40 mph 1010.4mb 50f
9:00 32 34 mph 1011.4mb 49f
8:00 31 33 mph 1012.4mb 48f
7:00 28 30 mph 1013.6mb 48f
6:00 28 30 mph 1014.3mb 48f
5:00 28 31 mph 1014.4mb 50f
4:00 26 29 mph 1014.5mb 50f
3:00 25 28 mph 1014.8mb 49f
2:00 28 30 mph 1014.8mb 50f
1:00 22 23 mph 1016.8mb 48f
12:00 15 17 mph 1018.1mb 46f
11:00 16
mph
1018.8mb 45f
10:00 16 17 mph 1019.6mb 44f
9:00 16 17 mph 1019.8mb 43f
8:00 10 13 mph 1019.6mb 42f
7:00 16 17 mph 1020.1mb 42f
6:00 11 13 mph 1020.9mb 41f
5:00 11 14 mph 1021.6mb 41f
4:00 7 9 mph 1022.4mb 40f
3:00 7 9 mph 1023.4mb 41f
2:00 3 5 mph 1023.5mb 41f
1:00 15 17 mph 1022.8mb 41f
12:00 8
mph
1023.3mb 40f
dom 01/15 11:00 6
mph
1023.8mb 40f
10:00 9 10 mph 1024.3mb 40f
9:00 8 9 mph 1024.9mb 40f
8:00 2
mph
1024.9mb 41f
7:00 5
mph
1024.7mb 42f
6:00 9 10 mph 1023.7mb 42f
5:00 6
mph
1023.9mb 42f
4:00 2 3 mph 1025mb 43f
3:00 7 8 mph 1025mb 43f
2:00 5 6 mph 1024.7mb 43f
1:00 7 8 mph 1025.3mb 43f
12:00  -  2 mph 1025.1mb 42f
11:00 1 2 mph 1025.8mb 40f
10:00 2
mph
1025.6mb 39f
9:00 2 3 mph 1025.2mb 37f
8:00 7
mph
1024.9mb 36f
7:00 5
mph
1025.3mb 37f
6:00 7
mph
1024.8mb 36f
5:00 7
mph
1025.3mb 37f
4:00 3 5 mph 1025.6mb 38f
3:00  -  1 mph 1026.1mb 40f
2:00 3
mph
1024.8mb 39f
1:00  -  mph 1024.9mb 39f
12:00 2 3 mph 1024.9mb 40f
sáb 01/14 11:00 7
mph
1024.2mb 38f
10:00 7 8 mph 1024.1mb 38f
9:00 7 8 mph 1024.6mb 40f
8:00 9 10 mph 1024.1mb 40f
7:00 6
mph
1024.2mb 40f
6:00 6 7 mph 1024.3mb 40f
5:00  -  mph 1024.2mb 41f